Time;durP1;ratioP1;P1;durP2;ratioP2;P2;SDS_P1;SDS_P2;PMS_P1;PMS_P2;Temp;Humidity;BMP_temperature;BMP_pressure;BME280_temperature;BME280_humidity;BME280_pressure;Samples;Min_cycle;Max_cycle;Signal;HPM_P1;HPM_P2
2022/04/02 00:00:26;;;;;;;3.90;2.05;;;9.50;61.00;;;;;;4995218;28;20046;-62
2022/04/02 00:02:51;;;;;;;3.65;2.10;;;9.50;61.00;;;;;;4995493;28;20026;-62
2022/04/02 00:05:17;;;;;;;5.65;2.20;;;9.40;60.90;;;;;;4995221;28;20072;-56
2022/04/02 00:07:42;;;;;;;4.18;2.20;;;9.50;61.00;;;;;;4995036;28;20053;-62
2022/04/02 00:10:08;;;;;;;6.22;2.00;;;9.60;60.90;;;;;;4995048;28;20026;-60
2022/04/02 00:12:34;;;;;;;6.18;2.08;;;9.50;61.00;;;;;;4995179;28;20042;-56
2022/04/02 00:14:59;;;;;;;5.47;2.25;;;9.50;61.10;;;;;;4995320;28;20499;-62
2022/04/02 00:17:25;;;;;;;4.47;2.22;;;9.40;61.10;;;;;;4995137;28;20033;-61
2022/04/02 00:19:52;;;;;;;4.68;2.25;;;9.30;61.50;;;;;;4994877;28;20030;-55
2022/04/02 00:22:18;;;;;;;7.28;1.95;;;9.30;61.50;;;;;;4992610;28;20033;-60
2022/04/02 00:24:43;;;;;;;3.70;1.95;;;9.30;61.40;;;;;;4988760;28;20046;-57
2022/04/02 00:27:09;;;;;;;6.40;2.10;;;9.30;61.50;;;;;;4993575;28;20065;-62
2022/04/02 00:29:38;;;;;;;3.42;2.03;;;9.20;61.70;;;;;;4992721;28;20031;-53
2022/04/02 00:32:07;;;;;;;4.72;2.10;;;9.30;61.80;;;;;;4987936;28;20038;-62
2022/04/02 00:34:33;;;;;;;4.70;2.33;;;9.40;61.50;;;;;;4976771;28;20114;-60
2022/04/02 00:36:58;;;;;;;7.03;2.55;;;9.30;61.50;;;;;;4994768;28;20112;-53
2022/04/02 00:39:24;;;;;;;4.60;2.20;;;9.30;61.50;;;;;;4994755;28;20045;-63
2022/04/02 00:41:49;;;;;;;2.80;1.83;;;9.20;61.50;;;;;;4994478;28;20053;-58
2022/04/02 00:44:21;;;;;;;4.97;1.98;;;9.10;61.90;;;;;;4994660;28;20054;-53
2022/04/02 00:46:47;;;;;;;4.43;2.58;;;9.20;61.70;;;;;;4993152;28;20081;-57
2022/04/02 00:49:14;;;;;;;5.95;1.98;;;9.30;61.80;;;;;;4994134;28;20052;-62
2022/04/02 00:51:42;;;;;;;5.35;1.90;;;9.30;61.70;;;;;;4987079;28;20464;-63
2022/04/02 00:54:09;;;;;;;7.13;2.08;;;9.40;61.80;;;;;;4985907;28;20061;-62
2022/04/02 00:56:37;;;;;;;4.30;1.65;;;9.40;61.60;;;;;;4994080;28;20472;-62
2022/04/02 00:59:02;;;;;;;6.18;2.38;;;9.40;61.70;;;;;;4994410;28;20027;-61
2022/04/02 01:01:28;;;;;;;4.68;1.88;;;9.50;61.60;;;;;;4994118;28;20037;-59
2022/04/02 01:03:53;;;;;;;5.72;2.45;;;9.40;61.80;;;;;;4989368;28;20029;-62
2022/04/02 01:06:19;;;;;;;4.80;1.80;;;9.40;61.80;;;;;;4990155;28;20121;-61
2022/04/02 01:08:46;;;;;;;7.25;2.10;;;9.50;61.80;;;;;;4993839;28;20022;-59
2022/04/02 01:11:12;;;;;;;6.00;1.88;;;9.50;61.80;;;;;;4993719;28;20560;-61
2022/04/02 01:13:37;;;;;;;5.72;2.05;;;9.40;61.90;;;;;;4992263;28;20105;-62
2022/04/02 01:16:03;;;;;;;4.75;2.15;;;9.40;62.00;;;;;;4993325;28;20110;-61
2022/04/02 01:18:29;;;;;;;5.72;1.92;;;9.40;62.10;;;;;;4993788;28;20034;-55
2022/04/02 01:20:55;;;;;;;5.97;1.90;;;9.40;61.90;;;;;;4993943;28;20479;-61
2022/04/02 01:23:28;;;;;;;4.72;2.55;;;9.40;62.00;;;;;;4994013;28;20039;-63
2022/04/02 01:25:53;;;;;;;5.45;2.72;;;9.40;62.00;;;;;;4994144;28;20038;-54
2022/04/02 01:28:19;;;;;;;4.68;1.50;;;9.40;62.10;;;;;;4994162;28;20364;-62
2022/04/02 01:30:45;;;;;;;4.80;2.30;;;9.40;61.80;;;;;;4993621;28;20034;-56
2022/04/02 01:33:11;;;;;;;5.95;2.33;;;9.40;62.00;;;;;;4993735;28;20483;-62
2022/04/02 01:35:36;;;;;;;6.35;1.98;;;9.40;62.00;;;;;;4993079;28;20018;-55
2022/04/02 01:38:02;;;;;;;3.95;2.08;;;9.40;62.20;;;;;;4994001;28;20490;-62
2022/04/02 01:40:27;;;;;;;4.13;2.22;;;9.40;62.10;;;;;;4993976;28;20033;-55
2022/04/02 01:42:53;;;;;;;8.20;2.40;;;9.40;62.30;;;;;;4993692;28;20081;-63
2022/04/02 01:45:18;;;;;;;5.03;2.08;;;9.30;62.40;;;;;;4993808;28;20100;-63
2022/04/02 01:47:44;;;;;;;3.22;2.22;;;9.30;62.50;;;;;;4993423;28;20029;-58
2022/04/02 01:50:10;;;;;;;7.47;1.92;;;9.30;62.60;;;;;;4993769;28;20105;-57
2022/04/02 01:52:36;;;;;;;7.38;2.05;;;9.30;62.70;;;;;;4993971;28;20029;-63
2022/04/02 01:55:02;;;;;;;2.70;1.80;;;9.30;62.70;;;;;;4993641;28;20030;-61
2022/04/02 01:57:28;;;;;;;4.40;2.00;;;9.30;62.80;;;;;;4993820;28;20384;-63
2022/04/02 01:59:54;;;;;;;4.60;1.85;;;9.30;62.90;;;;;;4993433;28;20440;-61
2022/04/02 02:02:22;;;;;;;7.32;2.17;;;9.30;62.90;;;;;;4993530;28;20019;-61
2022/04/02 02:04:48;;;;;;;5.63;1.95;;;9.30;62.80;;;;;;4993448;28;20034;-55
2022/04/02 02:07:14;;;;;;;4.57;2.00;;;9.30;63.00;;;;;;4993908;28;20030;-58
2022/04/02 02:09:39;;;;;;;6.53;2.50;;;9.20;63.00;;;;;;4993605;28;20034;-60
2022/04/02 02:12:05;;;;;;;5.40;2.15;;;9.20;62.80;;;;;;4993423;28;20113;-51
2022/04/02 02:14:31;;;;;;;6.18;2.35;;;9.20;62.80;;;;;;4994059;28;20542;-58
2022/04/02 02:16:57;;;;;;;6.03;2.00;;;9.20;62.60;;;;;;4992951;28;20030;-61
2022/04/02 02:19:23;;;;;;;5.20;2.40;;;9.20;62.40;;;;;;4993439;28;20507;-56
2022/04/02 02:21:48;;;;;;;5.38;2.30;;;9.20;62.20;;;;;;4993368;28;20049;-61
2022/04/02 02:24:14;;;;;;;5.50;2.22;;;9.20;62.30;;;;;;4993440;28;20092;-58
2022/04/02 02:26:39;;;;;;;3.83;2.25;;;9.10;62.30;;;;;;4993264;28;20494;-61
2022/04/02 02:29:06;;;;;;;3.25;1.80;;;9.10;62.30;;;;;;4993542;28;20431;-60
2022/04/02 02:31:33;;;;;;;3.92;1.95;;;9.10;62.50;;;;;;4992786;28;20066;-62
2022/04/02 02:36:43;;;;;;;3.92;2.47;;;9.00;62.80;;;;;;4993166;28;20042;-62
2022/04/02 02:39:09;;;;;;;5.10;1.88;;;9.10;62.50;;;;;;4993569;28;20023;-62
2022/04/02 02:41:34;;;;;;;6.50;2.38;;;9.10;62.60;;;;;;4993058;28;20372;-62
2022/04/02 02:44:00;;;;;;;3.45;1.58;;;9.10;62.90;;;;;;4993306;28;20391;-55
2022/04/02 02:46:25;;;;;;;4.40;2.13;;;9.10;63.10;;;;;;4994130;28;20030;-58
2022/04/02 02:48:51;;;;;;;6.80;2.05;;;9.10;63.40;;;;;;4996873;28;20025;-60
2022/04/02 02:51:17;;;;;;;4.68;2.88;;;9.10;63.50;;;;;;4996792;28;20488;-60
2022/04/02 02:53:44;;;;;;;4.97;1.77;;;9.10;63.60;;;;;;4996880;28;20018;-54
2022/04/02 02:56:10;;;;;;;7.53;1.83;;;9.00;63.60;;;;;;4996752;28;20112;-61
2022/04/02 02:58:35;;;;;;;3.55;2.20;;;9.10;63.70;;;;;;4996825;28;20050;-57
2022/04/02 03:01:01;;;;;;;3.95;2.10;;;9.00;63.60;;;;;;4996464;28;20473;-55
2022/04/02 03:03:27;;;;;;;3.05;2.08;;;9.00;63.60;;;;;;4996747;28;20026;-54
2022/04/02 03:05:53;;;;;;;3.13;1.90;;;8.90;63.90;;;;;;4996660;28;20019;-62
2022/04/02 03:08:19;;;;;;;3.33;2.00;;;9.00;63.80;;;;;;4996523;28;20049;-61
2022/04/02 03:10:45;;;;;;;5.32;1.88;;;8.90;63.90;;;;;;4996458;28;20098;-56
2022/04/02 03:13:11;;;;;;;3.67;2.00;;;8.90;63.90;;;;;;4996379;28;20023;-62
2022/04/02 03:15:37;;;;;;;3.17;1.70;;;9.00;63.80;;;;;;4995641;28;20026;-61
2022/04/02 03:18:05;;;;;;;7.40;2.55;;;8.90;63.70;;;;;;4988653;28;20027;-57
2022/04/02 03:20:30;;;;;;;2.25;1.42;;;8.90;63.70;;;;;;4991516;28;20074;-62
2022/04/02 03:22:56;;;;;;;5.35;2.00;;;8.90;63.20;;;;;;4996196;28;20028;-61
2022/04/02 03:25:21;;;;;;;4.43;2.00;;;8.90;62.90;;;;;;4996349;28;20026;-62
2022/04/02 03:27:48;;;;;;;4.25;1.85;;;8.80;62.60;;;;;;4996094;28;20498;-62
2022/04/02 03:30:16;;;;;;;4.25;2.40;;;8.80;62.70;;;;;;4996071;28;20633;-62
2022/04/02 03:32:42;;;;;;;3.58;2.20;;;8.80;62.20;;;;;;4995846;28;20026;-56
2022/04/02 03:35:08;;;;;;;3.85;2.20;;;8.80;61.50;;;;;;4996312;28;20076;-62
2022/04/02 03:37:38;;;;;;;3.83;2.00;;;8.80;61.20;;;;;;4995974;28;20045;-58
2022/04/02 03:40:10;;;;;;;3.45;1.98;;;8.80;60.60;;;;;;4995914;28;20061;-61
2022/04/02 03:42:38;;;;;;;5.43;2.07;;;8.80;60.20;;;;;;4995908;28;20395;-57
2022/04/02 03:45:06;;;;;;;3.03;1.63;;;8.80;60.40;;;;;;4995407;28;20038;-62
2022/04/02 03:47:32;;;;;;;8.35;2.00;;;8.80;60.60;;;;;;4995888;28;20029;-55
2022/04/02 03:49:58;;;;;;;3.42;2.00;;;8.80;60.40;;;;;;4995835;28;20022;-58
2022/04/02 03:52:24;;;;;;;4.47;1.60;;;8.80;60.70;;;;;;4995666;28;20035;-61
2022/04/02 03:54:49;;;;;;;4.68;1.70;;;8.80;60.50;;;;;;4995528;28;20030;-61
2022/04/02 03:57:16;;;;;;;4.28;2.22;;;8.80;60.50;;;;;;4995159;28;20384;-59
2022/04/02 03:59:42;;;;;;;2.20;1.67;;;8.80;60.00;;;;;;4995040;28;20476;-54
2022/04/02 04:02:10;;;;;;;5.30;2.00;;;8.80;59.70;;;;;;4995536;28;20050;-62
2022/04/02 04:04:36;;;;;;;4.20;1.83;;;8.80;59.10;;;;;;4995548;28;20105;-61
2022/04/02 04:07:02;;;;;;;2.83;1.98;;;8.80;59.00;;;;;;4995515;28;20101;-60
2022/04/02 04:09:28;;;;;;;4.07;1.67;;;8.80;59.00;;;;;;4995176;28;20097;-62
2022/04/02 04:11:54;;;;;;;3.72;1.85;;;8.80;58.60;;;;;;4995104;28;20544;-58
2022/04/02 04:14:22;;;;;;;4.88;1.98;;;8.80;58.10;;;;;;4995482;28;20435;-61
2022/04/02 04:16:48;;;;;;;4.70;1.98;;;8.70;58.20;;;;;;4995093;28;20468;-62
2022/04/02 04:19:14;;;;;;;3.35;1.90;;;8.70;58.20;;;;;;4995042;28;20045;-61
2022/04/02 04:21:39;;;;;;;4.32;2.05;;;8.70;58.70;;;;;;4995335;28;20030;-62
2022/04/02 04:24:06;;;;;;;3.55;1.73;;;8.80;58.30;;;;;;4994891;28;20029;-62
2022/04/02 04:26:32;;;;;;;4.93;2.50;;;8.80;57.90;;;;;;4994786;28;20375;-63
2022/04/02 04:28:58;;;;;;;5.43;1.98;;;8.70;57.30;;;;;;4994866;28;20022;-61
2022/04/02 04:31:24;;;;;;;4.88;1.92;;;8.60;57.60;;;;;;4995115;28;20122;-60
2022/04/02 04:33:50;;;;;;;2.85;2.05;;;8.50;57.00;;;;;;4994737;28;20117;-62
2022/04/02 04:36:18;;;;;;;3.22;1.70;;;8.40;56.90;;;;;;4994973;28;20116;-62
2022/04/02 04:38:45;;;;;;;4.03;1.98;;;8.50;57.10;;;;;;4994585;28;20030;-62
2022/04/02 04:41:11;;;;;;;2.75;1.75;;;8.40;57.30;;;;;;4994614;28;20037;-53
2022/04/02 04:43:37;;;;;;;3.00;1.70;;;8.30;57.10;;;;;;4994829;28;20380;-60
2022/04/02 04:46:03;;;;;;;3.30;1.83;;;8.40;57.40;;;;;;4994761;28;20109;-55
2022/04/02 04:48:29;;;;;;;5.25;2.15;;;8.40;57.50;;;;;;4994660;28;20104;-58
2022/04/02 04:50:55;;;;;;;3.78;1.85;;;8.40;57.00;;;;;;4994448;28;20093;-57
2022/04/02 04:53:20;;;;;;;2.78;1.50;;;8.40;57.40;;;;;;4994407;28;20080;-55
2022/04/02 04:55:46;;;;;;;3.65;1.50;;;8.50;57.20;;;;;;4994456;28;20026;-54
2022/04/02 04:58:11;;;;;;;2.55;1.50;;;8.50;57.40;;;;;;4977099;28;20113;-57
2022/04/02 05:00:37;;;;;;;3.53;1.88;;;8.50;57.10;;;;;;4992343;28;20149;-60
2022/04/02 05:03:04;;;;;;;2.17;1.70;;;8.50;57.20;;;;;;4984278;28;20099;-62
2022/04/02 05:05:31;;;;;;;4.25;1.58;;;8.50;57.10;;;;;;4973936;28;20512;-55
2022/04/02 05:07:58;;;;;;;4.38;2.00;;;8.50;57.30;;;;;;4973293;28;20050;-57
2022/04/02 05:10:24;;;;;;;3.53;2.13;;;8.50;56.90;;;;;;4974165;28;20034;-60
2022/04/02 05:12:49;;;;;;;3.42;1.52;;;8.30;56.30;;;;;;4974879;28;20033;-55
2022/04/02 05:15:15;;;;;;;4.50;1.70;;;8.40;57.00;;;;;;4974718;28;20026;-53
2022/04/02 05:17:42;;;;;;;3.63;1.95;;;8.40;56.70;;;;;;4974953;28;20018;-53
2022/04/02 05:20:11;;;;;;;5.28;2.00;;;8.40;56.90;;;;;;4974471;28;20064;-54
2022/04/02 05:22:37;;;;;;;4.85;1.67;;;8.50;56.90;;;;;;4974954;28;20034;-57
2022/04/02 05:25:04;;;;;;;7.05;1.98;;;8.40;56.90;;;;;;4974163;28;20027;-56
2022/04/02 05:27:29;;;;;;;5.63;1.73;;;8.50;56.80;;;;;;4974607;28;20539;-58
2022/04/02 05:29:55;;;;;;;4.55;1.75;;;8.50;56.80;;;;;;4974365;28;20031;-53
2022/04/02 05:32:21;;;;;;;3.38;1.73;;;8.40;57.10;;;;;;4974429;28;20400;-60
2022/04/02 05:34:47;;;;;;;4.65;1.95;;;8.40;57.10;;;;;;4974383;28;20034;-62
2022/04/02 05:37:13;;;;;;;2.80;1.95;;;8.40;57.30;;;;;;4974507;28;20105;-62
2022/04/02 05:39:41;;;;;;;4.00;2.83;;;8.40;57.40;;;;;;4974219;28;20059;-61
2022/04/02 05:42:07;;;;;;;2.75;1.65;;;8.40;57.30;;;;;;4974373;28;20034;-61
2022/04/02 05:44:33;;;;;;;4.20;1.98;;;8.40;56.90;;;;;;4974153;28;20499;-61
2022/04/02 05:46:59;;;;;;;3.03;2.03;;;8.40;57.20;;;;;;4974468;28;20035;-54
2022/04/02 05:49:24;;;;;;;5.18;1.88;;;8.30;57.10;;;;;;4974219;28;20113;-60
2022/04/02 05:51:50;;;;;;;3.35;1.90;;;8.30;57.00;;;;;;4974377;28;20038;-58
2022/04/02 05:54:16;;;;;;;3.63;1.90;;;8.30;57.00;;;;;;4974037;28;20055;-53
2022/04/02 05:56:42;;;;;;;7.80;2.58;;;8.40;57.20;;;;;;4956798;28;20045;-57
2022/04/02 05:59:08;;;;;;;4.93;1.70;;;8.40;57.00;;;;;;4974234;28;20086;-56
2022/04/02 06:01:35;;;;;;;3.40;2.00;;;8.40;56.80;;;;;;4974259;28;20035;-62
2022/04/02 06:04:01;;;;;;;6.00;2.03;;;8.40;57.00;;;;;;4974133;28;20015;-62
2022/04/02 06:06:26;;;;;;;2.22;1.80;;;8.40;56.70;;;;;;4974352;28;20035;-54
2022/04/02 06:08:52;;;;;;;3.72;2.40;;;8.30;56.70;;;;;;4974012;28;20500;-57
2022/04/02 06:11:17;;;;;;;5.03;2.13;;;8.40;56.70;;;;;;4974008;28;20038;-60
2022/04/02 06:13:43;;;;;;;3.10;1.70;;;8.40;57.00;;;;;;4974290;28;20412;-61
2022/04/02 06:16:08;;;;;;;4.35;1.88;;;8.40;57.00;;;;;;4972796;28;20038;-62
2022/04/02 06:18:35;;;;;;;4.82;2.05;;;8.40;57.00;;;;;;4974077;28;20062;-59
2022/04/02 06:21:04;;;;;;;3.88;1.63;;;8.40;56.80;;;;;;4974391;28;20019;-58
2022/04/02 06:23:30;;;;;;;6.13;2.10;;;8.40;56.60;;;;;;4961059;28;20089;-57
2022/04/02 06:25:56;;;;;;;5.85;1.88;;;8.40;56.70;;;;;;4978009;28;20424;-58
2022/04/02 06:28:22;;;;;;;4.32;1.88;;;8.40;56.80;;;;;;4977785;28;20492;-57
2022/04/02 06:30:48;;;;;;;4.88;1.80;;;8.40;57.00;;;;;;4977299;28;20042;-62
2022/04/02 06:33:13;;;;;;;9.05;2.30;;;8.40;56.60;;;;;;4986249;28;20053;-58
2022/04/02 06:35:39;;;;;;;10.60;2.28;;;8.50;57.90;;;;;;4987101;28;20576;-61
2022/04/02 06:38:04;;;;;;;4.95;1.95;;;8.30;57.70;;;;;;4987323;28;20026;-58
2022/04/02 06:40:30;;;;;;;4.53;1.92;;;8.40;57.30;;;;;;4985032;28;20114;-59
2022/04/02 06:42:57;;;;;;;3.17;1.90;;;8.50;57.50;;;;;;4988312;28;20481;-54
2022/04/02 06:45:23;;;;;;;4.68;2.20;;;8.60;57.20;;;;;;4990319;28;20494;-58
2022/04/02 06:47:49;;;;;;;4.38;2.08;;;8.60;57.50;;;;;;4994928;28;20027;-62
2022/04/02 06:50:14;;;;;;;2.78;1.90;;;8.70;57.90;;;;;;4994821;28;20037;-61
2022/04/02 06:52:41;;;;;;;3.65;2.25;;;8.80;58.00;;;;;;4995361;28;20030;-62
2022/04/02 06:55:08;;;;;;;3.67;2.20;;;8.80;58.50;;;;;;4996017;28;20034;-61
2022/04/02 06:57:44;;;;;;;3.30;1.98;;;8.90;57.50;;;;;;4995616;28;20062;-62
2022/04/02 07:00:11;;;;;;;4.15;1.90;;;8.90;58.20;;;;;;4994633;28;20049;-62
2022/04/02 07:02:37;;;;;;;4.90;2.55;;;9.00;58.60;;;;;;4995665;28;20023;-60
2022/04/02 07:05:07;;;;;;;4.30;1.92;;;9.00;58.60;;;;;;4996576;28;20022;-63
2022/04/02 07:07:33;;;;;;;3.83;2.15;;;9.10;57.80;;;;;;4995097;28;20022;-63
2022/04/02 07:09:58;;;;;;;5.18;1.90;;;9.10;58.40;;;;;;4962261;28;20030;-63
2022/04/02 07:12:24;;;;;;;2.70;2.03;;;9.00;57.70;;;;;;4987050;28;20179;-61
2022/04/02 07:14:50;;;;;;;4.20;2.10;;;9.10;57.90;;;;;;4987221;28;20022;-63
2022/04/02 07:17:15;;;;;;;4.47;2.53;;;9.10;58.70;;;;;;4974342;28;20360;-59
2022/04/02 07:19:41;;;;;;;4.47;2.25;;;9.10;57.60;;;;;;4993683;28;20030;-62
2022/04/02 07:22:10;;;;;;;4.57;2.22;;;9.10;57.60;;;;;;4977587;28;20177;-57
2022/04/02 07:24:39;;;;;;;3.55;3.00;;;9.10;57.80;;;;;;4993752;28;20030;-55
2022/04/02 07:27:07;;;;;;;7.13;2.85;;;9.10;57.70;;;;;;4995810;28;20046;-58
2022/04/02 07:29:33;;;;;;;4.47;2.20;;;9.10;57.70;;;;;;4985327;28;20031;-60
2022/04/02 07:31:59;;;;;;;5.95;2.67;;;9.20;57.20;;;;;;4995117;28;20049;-62
2022/04/02 07:34:25;;;;;;;6.13;2.70;;;9.10;57.20;;;;;;4993661;28;20053;-54
2022/04/02 07:36:57;;;;;;;4.25;2.70;;;9.20;57.10;;;;;;4989741;28;20036;-59
2022/04/02 07:39:34;;;;;;;6.72;3.22;;;9.30;57.00;;;;;;4995420;28;20486;-63
2022/04/02 07:42:18;;;;;;;2.95;1.92;;;9.40;57.20;;;;;;4994903;28;20040;-52
2022/04/02 07:45:01;;;;;;;7.00;2.67;;;9.40;57.10;;;;;;4992380;28;20033;-55
2022/04/02 07:47:30;;;;;;;4.38;2.60;;;9.40;56.80;;;;;;4993494;28;20109;-64
2022/04/02 07:50:00;;;;;;;4.35;2.30;;;9.30;56.70;;;;;;4992620;28;20160;-55
2022/04/02 07:52:27;;;;;;;3.30;2.53;;;9.40;56.60;;;;;;4991571;28;20030;-60
2022/04/02 07:54:58;;;;;;;5.00;2.83;;;9.40;56.60;;;;;;4994302;28;20019;-59
2022/04/02 07:57:31;;;;;;;6.07;2.45;;;9.50;56.80;;;;;;4994451;28;20034;-55
2022/04/02 08:00:00;;;;;;;3.78;2.15;;;9.60;56.60;;;;;;4983914;28;20157;-56
2022/04/02 08:02:39;;;;;;;4.28;2.17;;;9.60;56.80;;;;;;4991940;28;20015;-58
2022/04/02 08:05:12;;;;;;;3.67;2.20;;;9.70;56.30;;;;;;4987315;28;20488;-63
2022/04/02 08:07:43;;;;;;;3.85;2.17;;;9.80;55.80;;;;;;4989541;28;20041;-57
2022/04/02 08:10:11;;;;;;;4.20;2.55;;;9.80;55.60;;;;;;4983700;28;20026;-64
2022/04/02 08:12:38;;;;;;;3.80;2.08;;;9.90;55.60;;;;;;4993262;28;20046;-63
2022/04/02 08:15:06;;;;;;;5.13;2.47;;;9.90;54.70;;;;;;4992515;28;20507;-56
2022/04/02 08:17:32;;;;;;;4.70;2.00;;;9.90;54.70;;;;;;4969623;28;20639;-55
2022/04/02 08:19:59;;;;;;;5.53;2.33;;;9.90;54.70;;;;;;4987463;28;20495;-60
2022/04/02 08:22:25;;;;;;;5.72;2.30;;;10.00;54.40;;;;;;4985119;28;20038;-60
2022/04/02 08:24:51;;;;;;;5.65;2.08;;;9.90;54.90;;;;;;4992437;28;20027;-64
2022/04/02 08:27:35;;;;;;;5.78;2.10;;;10.00;54.30;;;;;;4991917;28;20040;-64
2022/04/02 08:30:06;;;;;;;4.03;1.90;;;10.10;54.10;;;;;;4983877;28;20040;-60
2022/04/02 08:32:49;;;;;;;4.18;2.22;;;10.10;53.80;;;;;;4986884;28;20041;-54
2022/04/02 08:35:20;;;;;;;5.78;2.00;;;10.00;53.90;;;;;;4978543;28;20067;-61
2022/04/02 08:37:51;;;;;;;5.15;2.30;;;10.00;54.20;;;;;;4982354;28;20019;-53
2022/04/02 08:40:55;;;;;;;3.03;2.13;;;9.90;53.80;;;;;;4987653;28;20417;-54
2022/04/02 08:43:20;;;;;;;3.85;2.08;;;9.90;53.70;;;;;;4942699;28;20434;-56
2022/04/02 08:46:00;;;;;;;3.33;2.00;;;9.80;53.60;;;;;;4985674;28;20118;-52
2022/04/02 08:48:28;;;;;;;4.70;2.47;;;9.80;54.20;;;;;;4981792;28;20122;-56
2022/04/02 08:51:15;;;;;;;5.35;1.98;;;10.00;54.20;;;;;;4967385;28;20026;-59
2022/04/02 08:53:49;;;;;;;6.20;2.10;;;10.10;54.10;;;;;;4981398;28;20030;-64
2022/04/02 08:56:24;;;;;;;4.25;1.90;;;10.20;54.40;;;;;;4964610;28;20037;-57
2022/04/02 08:58:53;;;;;;;4.22;2.05;;;10.20;53.60;;;;;;4986072;28;20140;-55
2022/04/02 09:01:57;;;;;;;2.88;2.05;;;10.20;53.30;;;;;;4984300;28;20030;-55
2022/04/02 09:04:51;;;;;;;4.53;2.40;;;10.20;53.50;;;;;;4964447;28;20046;-53
2022/04/02 09:07:19;;;;;;;5.45;2.47;;;10.20;53.80;;;;;;4991515;28;20388;-58
2022/04/02 09:09:53;;;;;;;3.67;2.13;;;10.20;53.90;;;;;;4990540;28;20108;-59
2022/04/02 09:12:42;;;;;;;3.78;2.38;;;10.20;52.90;;;;;;4991323;28;20038;-55
2022/04/02 09:15:34;;;;;;;10.45;1.65;;;10.10;53.00;;;;;;4993112;28;20044;-62
2022/04/02 09:18:07;;;;;;;4.07;2.13;;;10.60;55.70;;;;;;4986885;28;20026;-64
2022/04/02 09:20:38;;;;;;;4.35;2.10;;;11.00;55.00;;;;;;4987026;28;20065;-56
2022/04/02 09:23:07;;;;;;;7.32;1.90;;;11.20;53.50;;;;;;4977635;28;20137;-55
2022/04/02 09:26:14;;;;;;;4.88;2.25;;;11.20;52.90;;;;;;4990579;28;20069;-63
2022/04/02 09:29:37;;;;;;;5.00;2.05;;;11.10;52.70;;;;;;4909137;29;20084;-59
2022/04/02 09:32:47;;;;;;;4.55;2.35;;;10.60;51.80;;;;;;4870826;29;20098;-57
2022/04/02 09:35:26;;;;;;;3.70;2.30;;;10.70;53.70;;;;;;4990089;28;20026;-61
2022/04/02 09:38:30;;;;;;;6.30;2.03;;;10.50;53.20;;;;;;4975125;28;20490;-61
2022/04/02 09:41:10;;;;;;;2.78;1.83;;;10.50;54.00;;;;;;4989293;28;20022;-64
2022/04/02 09:43:38;;;;;;;3.65;2.10;;;10.70;51.70;;;;;;4986227;28;20121;-57
2022/04/02 09:46:25;;;;;;;3.30;1.92;;;10.80;52.40;;;;;;4992113;28;20034;-64
2022/04/02 09:49:07;;;;;;;5.35;2.10;;;10.90;52.90;;;;;;4991799;28;20031;-62
2022/04/02 09:51:34;;;;;;;5.10;2.25;;;10.90;51.40;;;;;;4991450;28;20130;-54
2022/04/02 09:54:59;;;;;;;3.35;1.63;;;11.00;51.00;;;;;;4991914;28;20072;-57
2022/04/02 09:57:50;;;;;;;5.88;1.92;;;11.00;49.70;;;;;;4975419;28;20084;-61
2022/04/02 10:00:16;;;;;;;5.75;1.75;;;11.10;49.60;;;;;;4973235;28;20053;-58
2022/04/02 10:03:08;;;;;;;2.58;1.50;;;11.10;48.80;;;;;;4973624;28;20018;-63
2022/04/02 10:05:42;;;;;;;2.78;1.80;;;10.90;48.30;;;;;;4973784;28;20078;-57
2022/04/02 10:08:34;;;;;;;3.58;1.65;;;10.90;49.00;;;;;;4974110;28;20057;-57
2022/04/02 10:11:04;;;;;;;5.33;1.17;;;11.10;50.20;;;;;;4973900;28;20038;-53
2022/04/02 10:13:33;;;;;;;2.70;1.40;;;11.10;49.30;;;;;;4974059;28;20118;-57
2022/04/02 10:15:59;;;;;;;4.28;1.45;;;11.20;49.20;;;;;;4973309;28;20109;-60
2022/04/02 10:18:27;;;;;;;2.08;1.17;;;11.30;48.20;;;;;;4978653;28;20052;-61
2022/04/02 10:20:53;;;;;;;3.45;1.42;;;11.40;48.70;;;;;;4990513;28;20376;-64
2022/04/02 10:23:23;;;;;;;3.88;1.73;;;11.40;47.80;;;;;;4992007;28;20117;-63
2022/04/02 10:26:10;;;;;;;5.38;1.75;;;11.30;48.30;;;;;;4997410;28;20029;-62
2022/04/02 10:28:58;;;;;;;3.03;1.25;;;11.30;49.20;;;;;;5012861;28;20080;-64
2022/04/02 10:31:40;;;;;;;2.88;1.70;;;11.40;49.60;;;;;;4992912;28;20118;-64
2022/04/02 10:34:29;;;;;;;2.70;1.38;;;11.40;49.30;;;;;;4989563;28;20130;-62
2022/04/02 10:37:08;;;;;;;5.28;1.65;;;11.40;49.40;;;;;;4988450;28;20476;-56
2022/04/02 10:39:45;;;;;;;6.43;1.70;;;11.50;48.90;;;;;;4987317;28;20065;-53
2022/04/02 10:42:17;;;;;;;2.75;1.67;;;11.20;48.10;;;;;;5000971;28;20109;-62
2022/04/02 10:44:46;;;;;;;;;;;11.20;49.10;;;;;;4992623;28;20033;-63
2022/04/02 10:47:14;;;;;;;3.67;1.38;;;11.30;48.50;;;;;;4989838;28;19910;-61
2022/04/02 10:49:40;;;;;;;3.63;1.67;;;11.40;49.10;;;;;;4986401;28;20109;-57
2022/04/02 10:52:11;;;;;;;3.78;1.75;;;11.40;48.30;;;;;;4990147;28;20031;-60
2022/04/02 10:54:39;;;;;;;3.22;1.50;;;11.40;48.20;;;;;;4980254;28;20034;-61
2022/04/02 10:57:05;;;;;;;6.38;1.75;;;11.40;47.80;;;;;;4986306;28;20097;-61
2022/04/02 10:59:32;;;;;;;2.63;1.50;;;11.40;47.20;;;;;;4985322;28;20034;-59
2022/04/02 11:02:01;;;;;;;6.20;2.25;;;11.10;47.20;;;;;;4989076;28;20022;-63
2022/04/02 11:04:53;;;;;;;3.10;1.73;;;11.30;47.60;;;;;;4989259;28;20030;-56
2022/04/02 11:07:37;;;;;;;3.13;1.63;;;11.30;48.80;;;;;;4981722;28;20127;-57
2022/04/02 11:10:04;;;;;;;2.72;2.50;;;11.40;49.00;;;;;;4990264;28;20030;-60
2022/04/02 11:12:45;;;;;;;4.10;1.88;;;11.20;49.50;;;;;;4993577;28;20153;-65
2022/04/02 11:15:17;;;;;;;5.18;3.05;;;11.30;49.90;;;;;;4994900;28;20037;-56
2022/04/02 11:17:45;;;;;;;5.18;2.15;;;11.30;50.10;;;;;;4989454;28;20061;-58
2022/04/02 11:20:17;;;;;;;8.80;1.83;;;11.40;48.80;;;;;;4993265;28;20507;-58
2022/04/02 11:22:52;;;;;;;6.97;1.63;;;11.50;50.00;;;;;;4992763;28;21063;-60
2022/04/02 11:25:22;;;;;;;4.40;1.58;;;11.60;50.40;;;;;;4990254;28;20026;-69
2022/04/02 11:27:54;;;;;;;6.25;1.70;;;11.60;50.20;;;;;;4990180;28;20113;-65
2022/04/02 11:30:21;;;;;;;7.55;1.77;;;11.70;49.00;;;;;;4988104;28;20064;-63
2022/04/02 11:32:50;;;;;;;4.10;1.52;;;11.80;50.60;;;;;;4991773;28;20100;-57
2022/04/02 11:35:23;;;;;;;4.90;1.50;;;11.80;50.00;;;;;;4966176;28;20027;-62
2022/04/02 11:38:14;;;;;;;3.47;1.58;;;11.80;50.70;;;;;;4986805;28;20027;-62
2022/04/02 11:40:54;;;;;;;6.35;2.17;;;11.80;50.10;;;;;;4984243;28;20039;-64
2022/04/02 11:43:34;;;;;;;3.60;1.40;;;12.00;52.60;;;;;;4986337;28;20493;-62
2022/04/02 11:46:03;;;;;;;5.55;1.80;;;12.10;51.90;;;;;;4985092;28;20029;-67
2022/04/02 11:48:34;;;;;;;3.58;1.65;;;12.10;51.70;;;;;;4986512;28;20034;-65
2022/04/02 11:51:21;;;;;;;2.90;1.85;;;12.00;47.80;;;;;;4985432;28;20042;-66
2022/04/02 11:53:46;;;;;;;4.50;1.17;;;11.80;46.80;;;;;;4991002;28;20491;-65
2022/04/02 11:56:22;;;;;;;2.97;1.40;;;11.70;45.80;;;;;;4983670;28;20099;-59
2022/04/02 11:58:49;;;;;;;4.38;2.08;;;11.80;46.10;;;;;;4983232;28;20030;-64
2022/04/02 12:01:14;;;;;;;2.85;1.52;;;11.80;46.80;;;;;;4989380;28;20034;-61
2022/04/02 12:03:41;;;;;;;3.17;1.40;;;11.60;46.30;;;;;;4984519;28;20076;-63
2022/04/02 12:06:11;;;;;;;3.58;1.83;;;11.70;45.80;;;;;;4982777;28;20026;-62
2022/04/02 12:08:40;;;;;;;2.97;1.58;;;11.70;45.90;;;;;;4988232;28;20028;-63
2022/04/02 12:11:09;;;;;;;2.53;1.42;;;11.60;44.20;;;;;;4988237;28;20120;-66
2022/04/02 12:13:35;;;;;;;3.63;1.35;;;11.60;46.30;;;;;;4981929;28;20031;-66
2022/04/02 12:16:13;;;;;;;5.32;1.77;;;11.60;46.10;;;;;;4985613;28;20033;-66
2022/04/02 12:18:59;;;;;;;3.03;1.67;;;11.60;46.60;;;;;;4988147;28;20433;-66
2022/04/02 12:21:41;;;;;;;3.58;1.75;;;11.70;46.50;;;;;;4986125;28;20045;-66
2022/04/02 12:24:08;;;;;;;3.72;2.33;;;11.80;46.40;;;;;;4981467;28;20169;-63
2022/04/02 12:26:34;;;;;;;4.25;1.70;;;11.80;46.20;;;;;;4982566;28;20035;-67
2022/04/02 12:29:02;;;;;;;2.42;1.40;;;11.60;44.40;;;;;;4989347;28;20027;-67
2022/04/02 12:31:31;;;;;;;4.60;1.60;;;11.70;44.90;;;;;;4981306;28;20060;-67
2022/04/02 12:33:58;;;;;;;5.55;1.88;;;11.70;44.90;;;;;;4990377;28;20029;-67
2022/04/02 12:36:31;;;;;;;4.32;1.75;;;11.70;45.80;;;;;;4960879;28;20040;-65
2022/04/02 12:39:19;;;;;;;2.50;1.58;;;11.80;46.30;;;;;;4984543;28;20030;-65
2022/04/02 12:41:47;;;;;;;2.92;1.67;;;11.70;46.00;;;;;;4984676;28;20038;-63
2022/04/02 12:44:18;;;;;;;4.55;1.55;;;11.80;45.20;;;;;;4976374;28;20062;-66
2022/04/02 12:46:44;;;;;;;3.30;1.60;;;11.90;45.30;;;;;;4978409;28;20468;-61
2022/04/02 12:49:26;;;;;;;3.65;1.92;;;11.90;44.60;;;;;;4986846;28;20412;-63
2022/04/02 12:52:08;;;;;;;;;;;11.90;44.40;;;;;;4980843;28;20037;-57
2022/04/02 12:54:34;;;;;;;3.30;1.73;;;11.90;45.60;;;;;;4988708;28;19913;-60
2022/04/02 12:57:13;;;;;;;3.80;1.67;;;11.80;45.10;;;;;;4975171;28;20340;-67
2022/04/02 12:59:55;;;;;;;4.43;1.92;;;11.80;45.90;;;;;;4990269;28;20026;-66
2022/04/02 13:02:22;;;;;;;2.58;1.77;;;11.80;46.50;;;;;;4977988;28;20039;-56
2022/04/02 13:04:56;;;;;;;6.07;2.20;;;11.80;46.50;;;;;;4988169;28;20113;-65
2022/04/02 13:07:22;;;;;;;5.40;2.10;;;11.80;46.40;;;;;;4977914;28;20027;-63
2022/04/02 13:09:51;;;;;;;3.08;1.75;;;11.80;46.40;;;;;;4984508;28;20085;-54